createdAt,value
2018-07-28T16:10:10.595Z,32.34
2018-07-28T16:13:27.990Z,32.11
2018-07-28T16:15:57.773Z,31.98
2018-07-28T16:18:27.559Z,31.91
2018-07-28T16:20:56.972Z,31.85
2018-07-28T16:23:26.751Z,31.82
2018-07-28T16:25:56.587Z,31.77
2018-07-28T16:28:26.368Z,31.74
2018-07-28T16:30:56.211Z,31.75
2018-07-28T16:33:26.327Z,31.78
2018-07-28T16:35:56.085Z,31.82
2018-07-28T16:38:25.994Z,32.10
2018-07-28T16:40:56.113Z,32.50
2018-07-28T16:43:26.048Z,32.74
2018-07-28T16:45:58.161Z,32.78
2018-07-28T16:48:27.996Z,32.76
2018-07-28T16:50:58.524Z,32.98
2018-07-28T16:53:28.342Z,32.96
2018-07-28T16:55:58.240Z,32.73
2018-07-28T16:58:28.108Z,32.35
2018-07-28T17:00:58.325Z,31.90
2018-07-28T17:03:28.687Z,31.52
2018-07-28T17:05:58.874Z,31.21
2018-07-28T17:08:29.785Z,30.94
2018-07-28T17:10:59.901Z,30.70
2018-07-28T17:13:29.747Z,30.53
2018-07-28T17:15:59.541Z,30.45
2018-07-28T17:18:30.453Z,30.27
2018-07-28T17:21:00.704Z,29.89
2018-07-28T17:23:30.707Z,29.63
2018-07-28T17:26:00.831Z,28.94
2018-07-28T17:28:31.707Z,28.36
2018-07-28T17:31:02.764Z,27.98
2018-07-28T17:33:32.405Z,27.71
2018-07-28T17:36:02.643Z,27.59
2018-07-28T17:38:32.836Z,27.52
2018-07-28T17:41:03.317Z,27.45
2018-07-28T17:43:33.431Z,27.04
2018-07-28T17:46:03.383Z,25.48
2018-07-28T17:48:33.367Z,24.02
2018-07-28T17:51:04.160Z,23.85
2018-07-28T17:53:34.043Z,23.22
2018-07-28T17:56:04.108Z,22.67
2018-07-28T17:58:34.573Z,22.42
2018-07-28T18:01:04.587Z,22.26
2018-07-28T18:03:35.579Z,22.15
2018-07-28T18:06:05.763Z,22.11
2018-07-28T18:08:37.998Z,22.21
2018-07-28T18:11:08.326Z,22.29
2018-07-28T18:13:38.312Z,22.28
2018-07-28T18:16:14.708Z,22.20
2018-07-28T18:18:44.605Z,22.05
2018-07-28T18:21:16.096Z,22.03
2018-07-28T18:23:46.138Z,22.05
2018-07-28T18:26:18.195Z,22.09
2018-07-28T18:28:50.041Z,22.13
2018-07-28T18:31:20.080Z,22.20
2018-07-28T18:33:50.705Z,22.21
2018-07-28T18:36:21.279Z,22.18
2018-07-28T18:38:51.500Z,22.22
2018-07-28T18:41:21.347Z,22.44
2018-07-28T18:43:51.575Z,22.56
2018-07-28T18:46:22.220Z,22.53
2018-07-28T18:48:54.289Z,22.53
2018-07-28T18:51:25.390Z,22.77
2018-07-28T18:53:57.064Z,22.81
2018-07-28T18:56:27.115Z,22.87
2018-07-28T18:58:56.964Z,22.83
2018-07-28T19:01:27.369Z,22.79
2018-07-28T19:03:57.975Z,22.70
2018-07-28T19:06:28.542Z,22.53
2018-07-28T19:09:03.246Z,22.42
2018-07-28T19:11:34.272Z,22.18
2018-07-28T19:14:09.158Z,22.04
2018-07-28T19:16:39.177Z,21.89
2018-07-28T19:19:14.532Z,21.79
2018-07-28T19:21:46.214Z,21.61
2018-07-28T19:24:16.172Z,21.51
2018-07-28T19:26:46.056Z,21.65
2018-07-28T19:29:21.143Z,22.01
2018-07-28T19:31:50.971Z,21.99
2018-07-28T19:34:21.721Z,22.26
2018-07-28T19:36:57.917Z,22.13
2018-07-28T19:39:27.699Z,21.86
2018-07-28T19:42:02.678Z,21.73
2018-07-28T19:44:32.497Z,21.65
2018-07-28T19:47:02.323Z,21.64
2018-07-28T19:49:33.085Z,21.56
2018-07-28T19:52:03.160Z,21.56
2018-07-28T19:54:33.536Z,21.49
2018-07-28T19:57:03.707Z,21.51
2018-07-28T19:59:34.294Z,21.52
2018-07-28T20:02:04.400Z,21.38
2018-07-28T20:04:34.198Z,21.31
2018-07-28T20:07:04.139Z,21.11
2018-07-28T20:09:36.482Z,20.92
2018-07-28T20:12:06.435Z,20.82
2018-07-28T20:14:36.264Z,20.81
2018-07-28T20:17:09.996Z,20.75
2018-07-28T20:19:41.200Z,20.66
2018-07-28T20:22:11.112Z,20.54
2018-07-28T20:24:41.379Z,20.61
2018-07-28T20:27:11.605Z,20.55
2018-07-28T20:29:41.782Z,20.63
2018-07-28T20:32:11.795Z,20.59
2018-07-28T20:34:41.798Z,20.48
2018-07-28T20:37:11.826Z,20.43
2018-07-28T20:39:41.707Z,20.36
2018-07-28T20:42:12.022Z,20.32
2018-07-28T20:44:41.789Z,20.28
2018-07-28T20:47:11.661Z,20.36
2018-07-28T20:49:41.480Z,20.42
2018-07-28T20:52:11.663Z,20.46
2018-07-28T20:54:41.460Z,20.42
2018-07-28T20:57:11.803Z,20.39
2018-07-28T20:59:48.714Z,20.39
2018-07-28T21:02:18.612Z,20.32
2018-07-28T21:04:48.466Z,20.46
2018-07-28T21:07:18.462Z,20.54
2018-07-28T21:09:49.038Z,20.50
2018-07-28T21:12:19.830Z,20.59
2018-07-28T21:14:50.312Z,20.68
2018-07-28T21:17:20.259Z,20.75
2018-07-28T21:19:50.191Z,20.75
2018-07-28T21:22:20.273Z,20.66
2018-07-28T21:24:50.092Z,20.63
2018-07-28T21:27:19.626Z,20.62
2018-07-28T21:29:49.751Z,20.69
2018-07-28T21:32:19.513Z,20.75
2018-07-28T21:34:49.833Z,20.75
2018-07-28T21:37:20.322Z,20.73
2018-07-28T21:39:50.162Z,20.70
2018-07-28T21:42:20.282Z,20.77
2018-07-28T21:44:50.201Z,20.71
2018-07-28T21:47:19.956Z,20.69
2018-07-28T21:49:50.034Z,20.64
2018-07-28T21:52:20.505Z,20.61
2018-07-28T21:54:50.573Z,20.54
2018-07-28T21:57:20.389Z,20.55
2018-07-28T21:59:49.821Z,20.59
2018-07-28T22:02:19.733Z,20.61
2018-07-28T22:04:49.590Z,20.62
2018-07-28T22:07:19.388Z,20.63
2018-07-28T22:09:49.210Z,20.64
2018-07-28T22:12:18.984Z,20.66
2018-07-28T22:14:48.698Z,20.66
2018-07-28T22:17:18.424Z,20.71
2018-07-28T22:19:48.175Z,20.75
2018-07-28T22:22:17.963Z,20.81
2018-07-28T22:24:47.685Z,20.81
2018-07-28T22:27:17.542Z,20.84
2018-07-28T22:29:47.902Z,20.82
2018-07-28T22:32:17.766Z,20.81
2018-07-28T22:34:47.548Z,20.82
2018-07-28T22:37:17.379Z,20.79
2018-07-28T22:39:46.755Z,20.80
2018-07-28T22:42:16.593Z,20.81
2018-07-28T22:44:46.339Z,20.84
2018-07-28T22:47:16.137Z,20.96
2018-07-28T22:49:45.902Z,20.86
2018-07-28T22:52:15.849Z,20.87
2018-07-28T22:54:45.564Z,20.78
2018-07-28T22:57:16.025Z,20.65
2018-07-28T22:59:45.916Z,20.58
2018-07-28T23:02:15.789Z,20.52
2018-07-28T23:04:45.927Z,20.48
2018-07-28T23:07:16.896Z,20.45
2018-07-28T23:09:46.794Z,20.39
2018-07-28T23:12:16.566Z,20.40
2018-07-28T23:14:46.371Z,20.46
2018-07-28T23:17:16.158Z,20.56
2018-07-28T23:19:46.216Z,20.55
2018-07-28T23:22:16.053Z,20.58
2018-07-28T23:24:45.902Z,20.56
2018-07-28T23:27:15.732Z,20.58
2018-07-28T23:29:45.552Z,20.60
2018-07-28T23:32:15.656Z,20.61
2018-07-28T23:34:46.078Z,20.60
2018-07-28T23:37:16.609Z,20.64
2018-07-28T23:39:46.740Z,20.63
2018-07-28T23:42:16.796Z,20.63
2018-07-28T23:44:46.643Z,20.64
2018-07-28T23:47:16.610Z,20.63
2018-07-28T23:49:46.628Z,20.60
2018-07-28T23:52:16.607Z,20.71
2018-07-28T23:54:47.445Z,20.73
2018-07-28T23:57:19.280Z,20.68
2018-07-28T23:59:50.294Z,20.71
